Portada
METAR-TAF:

METAR-TAF

Aeropuertos :

Aeropuerto Internacional de Maiquetía Simón Bolívar

Caracas, Venezuela

latitud: 10-36N, longitud: 066-59W, altitud: 43 m

Observación

El informe se hizo hace 26 minutos, a las 21:00 UTC
Viento 5 kt del este-sureste
Temperatura 28°C
Humedad 74%
Presión 1011 hPa
Visibilidad 10 km o más
Nubes dispersas a una altura de 1600 ft

METAR: SVMI 172100Z 11005KT 9999 SCT016 28/23 Q1011

Hora: 17:26 (21:26 UTC)

Pronóstico

El informe se hizo hace 11 horas y 26 minutos, a las 10:00 UTC
Pronóstico válido del 17 a las 12 UTC al 18 a las 12 UTC
Viento 3 kt del este
Visibilidad 10 km o más
Nubes dispersas a una altura de 1600 ft
Temporalmente
del 17 a las 14 UTC al 17 a las 18 UTC
Viento 3 kt del este
Nubes dispersas a una altura de 1600 ft

TAF: SVMI 171000Z 1712/1812 09003KT 9999 SCT016 TX31/18Z TN24/09Z TEMPO 1714/1718 09003KT SCT016

Observaciones y pronósticos meteorológicos de más de 4000 aeropuertos (mensajes METAR y TAF).

Los puntos amarillos y rojos representan las estaciones disponibles.

Ponga el ratón en el punto deseado para ver el nombre de la estación.

Haga clic para ver las observaciones y los pronósticos meteorológicos.

Para cambiar el mapa : haga clic en los botones verdes con una cruz de color negro para hacer un zoom, en el botón verde con un guión para alejar o en las flechas verdes para mapas adyacentes.


METAR-TAF: